sensor_id;sensor_type;location;lat;lon;timestamp;P1;P2;P0
74436;PMS7003;62868;52.360;30.424;2023-09-19T00:01:23;1.7;1.3;1.3
74436;PMS7003;62868;52.360;30.424;2023-09-19T00:06:31;2.3;1.3;1.3
74436;PMS7003;62868;52.360;30.424;2023-09-19T00:10:51;2;1.8;1.5
74436;PMS7003;62868;52.360;30.424;2023-09-19T00:16:09;1.7;1.7;1
74436;PMS7003;62868;52.360;30.424;2023-09-19T00:21:31;1.3;1;1
74436;PMS7003;62868;52.360;30.424;2023-09-19T00:26:07;2;1.3;1
74436;PMS7003;62868;52.360;30.424;2023-09-19T00:30:57;2;1.3;1
74436;PMS7003;62868;52.360;30.424;2023-09-19T00:35:51;1.7;1.3;1
74436;PMS7003;62868;52.360;30.424;2023-09-19T00:41:31;1.7;1.3;1
74436;PMS7003;62868;52.360;30.424;2023-09-19T00:46:31;1.3;1;0.7
74436;PMS7003;62868;52.360;30.424;2023-09-19T00:51:23;1.3;1.3;1
74436;PMS7003;62868;52.360;30.424;2023-09-19T00:56:15;1;1;1
74436;PMS7003;62868;52.360;30.424;2023-09-19T01:00:45;2.3;2;1
74436;PMS7003;62868;52.360;30.424;2023-09-19T01:06:21;2;2;2
74436;PMS7003;62868;52.360;30.424;2023-09-19T01:11:35;2.3;2;1.3
74436;PMS7003;62868;52.360;30.424;2023-09-19T01:16:08;2;2;1.7
74436;PMS7003;62868;52.360;30.424;2023-09-19T01:20:53;3;2.3;1.3
74436;PMS7003;62868;52.360;30.424;2023-09-19T01:25:50;2.3;2.3;2
74436;PMS7003;62868;52.360;30.424;2023-09-19T01:31:21;2.8;2;1.5
74436;PMS7003;62868;52.360;30.424;2023-09-19T01:36:29;2.3;2.3;2
74436;PMS7003;62868;52.360;30.424;2023-09-19T01:41:06;3.3;2.7;2
74436;PMS7003;62868;52.360;30.424;2023-09-19T01:46:18;2;1.7;1.7
74436;PMS7003;62868;52.360;30.424;2023-09-19T01:50:52;1.8;1.8;1.5
74436;PMS7003;62868;52.360;30.424;2023-09-19T01:56:10;2;1.7;1.3
74436;PMS7003;62868;52.360;30.424;2023-09-19T02:01:31;2.7;2;1.7
74436;PMS7003;62868;52.360;30.424;2023-09-19T02:05:48;2.3;2;1.8
74436;PMS7003;62868;52.360;30.424;2023-09-19T02:10:51;2;1.7;1.7
74436;PMS7003;62868;52.360;30.424;2023-09-19T02:16:01;1.7;1.7;1.3
74436;PMS7003;62868;52.360;30.424;2023-09-19T02:21:29;2.3;2;1.3
74436;PMS7003;62868;52.360;30.424;2023-09-19T02:26:29;2.3;2;1.8
74436;PMS7003;62868;52.360;30.424;2023-09-19T02:31:21;2.3;2.3;1.3
74436;PMS7003;62868;52.360;30.424;2023-09-19T02:35:54;1.7;1.7;1.3
74436;PMS7003;62868;52.360;30.424;2023-09-19T02:40:55;1;1;0.7
74436;PMS7003;62868;52.360;30.424;2023-09-19T02:45:45;1.8;1.8;1.3
74436;PMS7003;62868;52.360;30.424;2023-09-19T02:51:29;2;2;1.3
74436;PMS7003;62868;52.360;30.424;2023-09-19T02:55:49;2;2;1.7
74436;PMS7003;62868;52.360;30.424;2023-09-19T03:00:51;1.7;1.7;1.3
74436;PMS7003;62868;52.360;30.424;2023-09-19T03:05:55;2.3;1.8;1
74436;PMS7003;62868;52.360;30.424;2023-09-19T03:11:01;2.3;1.3;1.3
74436;PMS7003;62868;52.360;30.424;2023-09-19T03:16:29;2;1.7;1.7
74436;PMS7003;62868;52.360;30.424;2023-09-19T03:21:29;1.7;1;1
74436;PMS7003;62868;52.360;30.424;2023-09-19T03:26:31;2.5;2.3;1.5
74436;PMS7003;62868;52.360;30.424;2023-09-19T03:31:23;2.3;2.3;1.7
74436;PMS7003;62868;52.360;30.424;2023-09-19T03:36:07;2;1.7;1
74436;PMS7003;62868;52.360;30.424;2023-09-19T03:41:15;2.3;2.3;1.7
74436;PMS7003;62868;52.360;30.424;2023-09-19T03:45:45;3;2.8;2.3
74436;PMS7003;62868;52.360;30.424;2023-09-19T03:50:45;2.7;2.3;2
74436;PMS7003;62868;52.360;30.424;2023-09-19T03:56:01;3;2.7;2
74436;PMS7003;62868;52.360;30.424;2023-09-19T04:00:55;3.3;2.5;2.5
74436;PMS7003;62868;52.360;30.424;2023-09-19T04:06:27;3.7;3.3;2.7
74436;PMS7003;62868;52.360;30.424;2023-09-19T04:11:29;3.3;3;2.3
74436;PMS7003;62868;52.360;30.424;2023-09-19T04:16:15;3.3;3;2.3
74436;PMS7003;62868;52.360;30.424;2023-09-19T04:21:23;3.8;3.3;2.8
74436;PMS7003;62868;52.360;30.424;2023-09-19T04:26:03;3;3;2.3
74436;PMS7003;62868;52.360;30.424;2023-09-19T04:31:15;3.3;3.3;2.7
74436;PMS7003;62868;52.360;30.424;2023-09-19T04:35:49;3.3;2.7;2.7
74436;PMS7003;62868;52.360;30.424;2023-09-19T04:40:49;3.3;2.8;2.5
74436;PMS7003;62868;52.360;30.424;2023-09-19T04:45:45;3.7;3;2.3
74436;PMS7003;62868;52.360;30.424;2023-09-19T04:50:49;4;4;2.7
74436;PMS7003;62868;52.360;30.424;2023-09-19T04:56:09;3.7;3.3;3
74436;PMS7003;62868;52.360;30.424;2023-09-19T05:01:29;5.5;4.5;3.3
74436;PMS7003;62868;52.360;30.424;2023-09-19T05:06:17;5.3;4.3;3.7
74436;PMS7003;62868;52.360;30.424;2023-09-19T05:11:31;5.3;3.7;3
74436;PMS7003;62868;52.360;30.424;2023-09-19T05:15:45;4.7;3.3;3
74436;PMS7003;62868;52.360;30.424;2023-09-19T05:21:15;4.5;4;3
74436;PMS7003;62868;52.360;30.424;2023-09-19T05:25:45;4.7;4.3;3.3
74436;PMS7003;62868;52.360;30.424;2023-09-19T05:31:07;5;4.7;3
74436;PMS7003;62868;52.360;30.424;2023-09-19T05:35:45;4.3;3.7;3
74436;PMS7003;62868;52.360;30.424;2023-09-19T05:40:59;5;4.3;3.3
74436;PMS7003;62868;52.360;30.424;2023-09-19T05:46:23;4.7;3.7;3.3
74436;PMS7003;62868;52.360;30.424;2023-09-19T05:51:25;4.7;4;3.3
74436;PMS7003;62868;52.360;30.424;2023-09-19T05:56:13;4;3.8;3.3
74436;PMS7003;62868;52.360;30.424;2023-09-19T06:01:25;4;3.3;2.7
74436;PMS7003;62868;52.360;30.424;2023-09-19T06:06:09;3.7;3.3;2.7
74436;PMS7003;62868;52.360;30.424;2023-09-19T06:11:17;4.7;4.7;3.3
74436;PMS7003;62868;52.360;30.424;2023-09-19T06:15:45;4.3;3.5;3
74436;PMS7003;62868;52.360;30.424;2023-09-19T06:20:45;3.3;3.3;2.7
74436;PMS7003;62868;52.360;30.424;2023-09-19T06:25:45;5;3.7;2.7
74436;PMS7003;62868;52.360;30.424;2023-09-19T06:30:53;4.3;4.3;3.7
74436;PMS7003;62868;52.360;30.424;2023-09-19T06:36:27;4.3;4;3
74436;PMS7003;62868;52.360;30.424;2023-09-19T06:41:31;3.3;3.3;2.7
74436;PMS7003;62868;52.360;30.424;2023-09-19T06:46:17;5;3.7;3
74436;PMS7003;62868;52.360;30.424;2023-09-19T06:51:29;2.7;2.7;1.7
74436;PMS7003;62868;52.360;30.424;2023-09-19T06:56:09;3;2.5;2.3
74436;PMS7003;62868;52.360;30.424;2023-09-19T07:01:15;3.7;3.3;2.7
74436;PMS7003;62868;52.360;30.424;2023-09-19T07:06:03;3.3;2.7;1.7
74436;PMS7003;62868;52.360;30.424;2023-09-19T07:10:45;3.3;2.7;2
74436;PMS7003;62868;52.360;30.424;2023-09-19T07:15:55;3;3;2.3
74436;PMS7003;62868;52.360;30.424;2023-09-19T07:21:01;4;3.3;3
74436;PMS7003;62868;52.360;30.424;2023-09-19T07:26:11;3.3;3.3;2.7
74436;PMS7003;62868;52.360;30.424;2023-09-19T07:31:09;2.3;2;1.7
74436;PMS7003;62868;52.360;30.424;2023-09-19T07:36:29;1.8;1.8;1.5
74436;PMS7003;62868;52.360;30.424;2023-09-19T07:41:29;2.3;2.3;2
74436;PMS7003;62868;52.360;30.424;2023-09-19T07:46:31;2.3;2;1.7
74436;PMS7003;62868;52.360;30.424;2023-09-19T07:51:17;2;1.8;1.8
74436;PMS7003;62868;52.360;30.424;2023-09-19T07:55:51;2.3;2.3;1.7
74436;PMS7003;62868;52.360;30.424;2023-09-19T08:00:45;2;2;1.3
74436;PMS7003;62868;52.360;30.424;2023-09-19T08:06:09;1.7;1.7;1.3
74436;PMS7003;62868;52.360;30.424;2023-09-19T08:10:45;2.8;2.3;1.8
74436;PMS7003;62868;52.360;30.424;2023-09-19T08:16:11;3;2.7;2
74436;PMS7003;62868;52.360;30.424;2023-09-19T08:20:50;2;2;2
74436;PMS7003;62868;52.360;30.424;2023-09-19T08:26:31;2.7;2.3;1.7
74436;PMS7003;62868;52.360;30.424;2023-09-19T08:31:31;3;3;2.5
74436;PMS7003;62868;52.360;30.424;2023-09-19T08:36:09;2.7;2.3;2.3
74436;PMS7003;62868;52.360;30.424;2023-09-19T08:41:31;2.3;2.3;1.7
74436;PMS7003;62868;52.360;30.424;2023-09-19T08:46:24;2;1.7;1.7
74436;PMS7003;62868;52.360;30.424;2023-09-19T08:51:18;2.3;1.8;1.8
74436;PMS7003;62868;52.360;30.424;2023-09-19T08:56:31;3.7;3;2
74436;PMS7003;62868;52.360;30.424;2023-09-19T09:01:23;2;1.7;1.3
74436;PMS7003;62868;52.360;30.424;2023-09-19T09:05:53;2.7;2.3;1.7
74436;PMS7003;62868;52.360;30.424;2023-09-19T09:11:11;3;2.8;2.3
74436;PMS7003;62868;52.360;30.424;2023-09-19T09:15:59;2.7;2.7;2.3
74436;PMS7003;62868;52.360;30.424;2023-09-19T09:21:31;2.3;2.3;1.7
74436;PMS7003;62868;52.360;30.424;2023-09-19T09:26:09;2.7;2.7;2
74436;PMS7003;62868;52.360;30.424;2023-09-19T09:31:25;2;2;1.8
74436;PMS7003;62868;52.360;30.424;2023-09-19T09:35:49;1.7;1.3;0.7
74436;PMS7003;62868;52.360;30.424;2023-09-19T09:40:48;2.3;2.3;2.3
74436;PMS7003;62868;52.360;30.424;2023-09-19T09:46:12;2.5;1.8;1.8
74436;PMS7003;62868;52.360;30.424;2023-09-19T09:50:46;2.7;2.7;2.3
74436;PMS7003;62868;52.360;30.424;2023-09-19T09:56:00;3.7;3.7;3
74436;PMS7003;62868;52.360;30.424;2023-09-19T10:01:45;2.3;2;1.7
74436;PMS7003;62868;52.360;30.424;2023-09-19T10:06:40;2;2;1.5
74436;PMS7003;62868;52.360;30.424;2023-09-19T10:11:31;2.7;2;2
74436;PMS7003;62868;52.360;30.424;2023-09-19T10:16:17;1;1;1
74436;PMS7003;62868;52.360;30.424;2023-09-19T10:21:31;3;3;2.3
74436;PMS7003;62868;52.360;30.424;2023-09-19T10:25:51;2;2;1.5
74436;PMS7003;62868;52.360;30.424;2023-09-19T10:30:46;3;2.7;2
74436;PMS7003;62868;52.360;30.424;2023-09-19T10:36:11;3;3;2
74436;PMS7003;62868;52.360;30.424;2023-09-19T10:41:03;2;2;1.3
74436;PMS7003;62868;52.360;30.424;2023-09-19T10:46:11;2;1.8;1.3
74436;PMS7003;62868;52.360;30.424;2023-09-19T10:51:11;3;2.3;2.3
74436;PMS7003;62868;52.360;30.424;2023-09-19T10:56:32;2.3;2.3;1.7
74436;PMS7003;62868;52.360;30.424;2023-09-19T11:01:40;1.7;1;1
74436;PMS7003;62868;52.360;30.424;2023-09-19T11:06:10;1.8;1.8;1.3
74436;PMS7003;62868;52.360;30.424;2023-09-19T11:11:38;2.3;1.7;1.7
74436;PMS7003;62868;52.360;30.424;2023-09-19T11:16:03;1;0.7;0.7
74436;PMS7003;62868;52.360;30.424;2023-09-19T11:20:45;1.3;1.3;1
74436;PMS7003;62868;52.360;30.424;2023-09-19T11:26:19;0.8;0.5;0.5
74436;PMS7003;62868;52.360;30.424;2023-09-19T11:30:45;2.7;2;1.3
74436;PMS7003;62868;52.360;30.424;2023-09-19T11:35:58;2.3;2;2
74436;PMS7003;62868;52.360;30.424;2023-09-19T11:41:43;3.5;2.5;2
74436;PMS7003;62868;52.360;30.424;2023-09-19T11:46:17;4.3;3.7;3
74436;PMS7003;62868;52.360;30.424;2023-09-19T11:51:37;3;2.7;2.3
74436;PMS7003;62868;52.360;30.424;2023-09-19T11:55:53;3.3;2.7;2
74436;PMS7003;62868;52.360;30.424;2023-09-19T12:00:45;3;3;2.3
74436;PMS7003;62868;52.360;30.424;2023-09-19T12:05:51;3;2.7;2
74436;PMS7003;62868;52.360;30.424;2023-09-19T12:11:13;3.3;3.3;2
74436;PMS7003;62868;52.360;30.424;2023-09-19T12:16:29;3.3;3;2
74436;PMS7003;62868;52.360;30.424;2023-09-19T12:20:45;3.3;2.5;1.8
74436;PMS7003;62868;52.360;30.424;2023-09-19T12:25:45;3;2.7;2
74436;PMS7003;62868;52.360;30.424;2023-09-19T12:31:09;2.7;2;1.3
74436;PMS7003;62868;52.360;30.424;2023-09-19T12:35:51;2.3;2;1.3
74436;PMS7003;62868;52.360;30.424;2023-09-19T12:41:31;2.8;2.8;2.5
74436;PMS7003;62868;52.360;30.424;2023-09-19T12:45:59;2.7;2.3;1.7
74436;PMS7003;62868;52.360;30.424;2023-09-19T12:51:01;3;2;2
74436;PMS7003;62868;52.360;30.424;2023-09-19T12:56:12;3.7;3;3
74436;PMS7003;62868;52.360;30.424;2023-09-19T13:01:13;3.3;2.8;2.3
74436;PMS7003;62868;52.360;30.424;2023-09-19T13:06:35;3;3;2.7
74436;PMS7003;62868;52.360;30.424;2023-09-19T13:11:08;2.7;2.3;2
74436;PMS7003;62868;52.360;30.424;2023-09-19T13:15:51;1.7;1.7;1
74436;PMS7003;62868;52.360;30.424;2023-09-19T13:21:12;2.3;2;1.5
74436;PMS7003;62868;52.360;30.424;2023-09-19T13:25:51;2.7;2.3;1.7
74436;PMS7003;62868;52.360;30.424;2023-09-19T13:31:31;2.3;1.7;1.7
74436;PMS7003;62868;52.360;30.424;2023-09-19T13:36:31;1;0.8;0.8
74436;PMS7003;62868;52.360;30.424;2023-09-19T13:40:45;0.7;0.3;0.3
74436;PMS7003;62868;52.360;30.424;2023-09-19T13:45:45;1.7;1.3;1
74436;PMS7003;62868;52.360;30.424;2023-09-19T13:50:59;0;0;0
74436;PMS7003;62868;52.360;30.424;2023-09-19T13:56:32;1.3;1;0.5
74436;PMS7003;62868;52.360;30.424;2023-09-19T14:00:45;0.3;0;0
74436;PMS7003;62868;52.360;30.424;2023-09-19T14:05:57;1;0.7;0.3
74436;PMS7003;62868;52.360;30.424;2023-09-19T14:11:11;0;0;0
74436;PMS7003;62868;52.360;30.424;2023-09-19T14:15:45;0.5;0.5;0.5
74436;PMS7003;62868;52.360;30.424;2023-09-19T14:21:31;0;0;0
74436;PMS7003;62868;52.360;30.424;2023-09-19T14:26:23;0.7;0.3;0.3
74436;PMS7003;62868;52.360;30.424;2023-09-19T14:30:45;0.3;0.3;0.3
74436;PMS7003;62868;52.360;30.424;2023-09-19T14:36:02;1.5;1;0.8
74436;PMS7003;62868;52.360;30.424;2023-09-19T14:40:58;1.3;1.3;1
74436;PMS7003;62868;52.360;30.424;2023-09-19T14:46:31;2;1.7;1
74436;PMS7003;62868;52.360;30.424;2023-09-19T14:50:55;2.7;2.3;1.7
74436;PMS7003;62868;52.360;30.424;2023-09-19T14:55:59;2.3;2.3;1.5
74436;PMS7003;62868;52.360;30.424;2023-09-19T15:01:12;3.3;2.7;2
74436;PMS7003;62868;52.360;30.424;2023-09-19T15:06:12;2.3;2;1.3
74436;PMS7003;62868;52.360;30.424;2023-09-19T15:11:31;1.3;1;0.7
74436;PMS7003;62868;52.360;30.424;2023-09-19T15:16:11;0.5;0.3;0
74436;PMS7003;62868;52.360;30.424;2023-09-19T15:20:51;1;0.7;0.7
74436;PMS7003;62868;52.360;30.424;2023-09-19T15:25:57;0.3;0.3;0.3
74436;PMS7003;62868;52.360;30.424;2023-09-19T15:30:59;0.3;0.3;0
74436;PMS7003;62868;52.360;30.424;2023-09-19T15:36:31;0.3;0.3;0.3
74436;PMS7003;62868;52.360;30.424;2023-09-19T15:40:46;0.3;0;0
74436;PMS7003;62868;52.360;30.424;2023-09-19T15:45:59;0;0;0
74436;PMS7003;62868;52.360;30.424;2023-09-19T15:51:09;0.3;0.3;0
74436;PMS7003;62868;52.360;30.424;2023-09-19T15:56:18;0;0;0
74436;PMS7003;62868;52.360;30.424;2023-09-19T16:01:31;0;0;0
74436;PMS7003;62868;52.360;30.424;2023-09-19T16:06:12;0;0;0
74436;PMS7003;62868;52.360;30.424;2023-09-19T16:11:11;0.3;0.3;0.3
74436;PMS7003;62868;52.360;30.424;2023-09-19T16:15:51;0;0;0
74436;PMS7003;62868;52.360;30.424;2023-09-19T16:21:05;0;0;0
74436;PMS7003;62868;52.360;30.424;2023-09-19T16:26:31;0;0;0
74436;PMS7003;62868;52.360;30.424;2023-09-19T16:30:57;0.3;0.3;0.3
74436;PMS7003;62868;52.360;30.424;2023-09-19T16:35:45;0;0;0
74436;PMS7003;62868;52.360;30.424;2023-09-19T16:41:11;0;0;0
74436;PMS7003;62868;52.360;30.424;2023-09-19T16:46:23;0.3;0;0
74436;PMS7003;62868;52.360;30.424;2023-09-19T16:51:31;0;0;0
74436;PMS7003;62868;52.360;30.424;2023-09-19T16:56:23;0;0;0
74436;PMS7003;62868;52.360;30.424;2023-09-19T17:00:51;0;0;0
74436;PMS7003;62868;52.360;30.424;2023-09-19T17:05:57;0.7;0;0
74436;PMS7003;62868;52.360;30.424;2023-09-19T17:10:59;0.5;0.3;0.3
74436;PMS7003;62868;52.360;30.424;2023-09-19T17:16:31;0.3;0.3;0
74436;PMS7003;62868;52.360;30.424;2023-09-19T17:21:04;0.3;0.3;0
74436;PMS7003;62868;52.360;30.424;2023-09-19T17:25:45;1;1;0.8
74436;PMS7003;62868;52.360;30.424;2023-09-19T17:31:12;0.7;0.7;0.7
74436;PMS7003;62868;52.360;30.424;2023-09-19T17:36:12;1;0.7;0.3
74436;PMS7003;62868;52.360;30.424;2023-09-19T17:41:31;0.3;0.3;0.3
74436;PMS7003;62868;52.360;30.424;2023-09-19T17:46:23;0.5;0.5;0
74436;PMS7003;62868;52.360;30.424;2023-09-19T17:51:17;1;0.7;0.7
74436;PMS7003;62868;52.360;30.424;2023-09-19T17:55:45;1;0.7;0.3
74436;PMS7003;62868;52.360;30.424;2023-09-19T18:01:23;0.3;0.3;0.3
74436;PMS7003;62868;52.360;30.424;2023-09-19T18:06:12;0.8;0.8;0.3
74436;PMS7003;62868;52.360;30.424;2023-09-19T18:11:21;1;1;0.7
74436;PMS7003;62868;52.360;30.424;2023-09-19T18:16:19;1.3;1;1
74436;PMS7003;62868;52.360;30.424;2023-09-19T18:21:13;1;1;1
74436;PMS7003;62868;52.360;30.424;2023-09-19T18:26:23;2.5;2.3;1.5
74436;PMS7003;62868;52.360;30.424;2023-09-19T18:31:31;2.3;1.7;1.3
74436;PMS7003;62868;52.360;30.424;2023-09-19T18:36:17;0.7;0.7;0.7
74436;PMS7003;62868;52.360;30.424;2023-09-19T18:41:10;1.7;1.3;1
74436;PMS7003;62868;52.360;30.424;2023-09-19T18:45:53;2;1.8;1.3
74436;PMS7003;62868;52.360;30.424;2023-09-19T18:51:04;1.3;0.7;0.3
74436;PMS7003;62868;52.360;30.424;2023-09-19T18:56:33;1.7;1.7;0.7
74436;PMS7003;62868;52.360;30.424;2023-09-19T19:01:03;1.7;1.3;0.7
74436;PMS7003;62868;52.360;30.424;2023-09-19T19:06:02;1;1;1
74436;PMS7003;62868;52.360;30.424;2023-09-19T19:11:21;1.7;0.7;0.7
74436;PMS7003;62868;52.360;30.424;2023-09-19T19:16:23;1.3;1.3;1
74436;PMS7003;62868;52.360;30.424;2023-09-19T19:21:23;1.5;1.3;0.5
74436;PMS7003;62868;52.360;30.424;2023-09-19T19:25:53;1.7;1.7;0.7
74436;PMS7003;62868;52.360;30.424;2023-09-19T19:30:51;2;1.7;1
74436;PMS7003;62868;52.360;30.424;2023-09-19T19:35:51;1.7;1.3;1
74436;PMS7003;62868;52.360;30.424;2023-09-19T19:41:33;1.3;1.3;1.3
74436;PMS7003;62868;52.360;30.424;2023-09-19T19:46:23;1.7;1.7;1.3
74436;PMS7003;62868;52.360;30.424;2023-09-19T19:51:19;1.3;1.3;1.3
74436;PMS7003;62868;52.360;30.424;2023-09-19T19:56:07;1.7;1.7;1.3
74436;PMS7003;62868;52.360;30.424;2023-09-19T20:01:01;1.8;1.3;1
74436;PMS7003;62868;52.360;30.424;2023-09-19T20:06:33;2.3;1.7;1
74436;PMS7003;62868;52.360;30.424;2023-09-19T20:11:09;1.3;0.7;0.7
74436;PMS7003;62868;52.360;30.424;2023-09-19T20:15:53;1.7;1.3;1
74436;PMS7003;62868;52.360;30.424;2023-09-19T20:20:51;1.3;1.3;1
74436;PMS7003;62868;52.360;30.424;2023-09-19T20:25:49;2;1.3;1
74436;PMS7003;62868;52.360;30.424;2023-09-19T20:31:31;1.3;1.3;0.7
74436;PMS7003;62868;52.360;30.424;2023-09-19T20:36:21;1;1;1
74436;PMS7003;62868;52.360;30.424;2023-09-19T20:41:17;1.5;1.3;1
74436;PMS7003;62868;52.360;30.424;2023-09-19T20:45:43;2;1.7;1.7
74436;PMS7003;62868;52.360;30.424;2023-09-19T20:51:19;1;1;1
74436;PMS7003;62868;52.360;30.424;2023-09-19T20:56:31;1;1;1
74436;PMS7003;62868;52.360;30.424;2023-09-19T21:00:45;1.3;1;1
74436;PMS7003;62868;52.360;30.424;2023-09-19T21:05:45;1;1;1
74436;PMS7003;62868;52.360;30.424;2023-09-19T21:10:45;1.7;1.3;1.3
74436;PMS7003;62868;52.360;30.424;2023-09-19T21:16:00;1.3;1.3;1
74436;PMS7003;62868;52.360;30.424;2023-09-19T21:21:33;1.7;1.3;1
74436;PMS7003;62868;52.360;30.424;2023-09-19T21:26:23;1.7;1;1
74436;PMS7003;62868;52.360;30.424;2023-09-19T21:31:19;1.3;1.3;1
74436;PMS7003;62868;52.360;30.424;2023-09-19T21:35:59;1;1;0.8
74436;PMS7003;62868;52.360;30.424;2023-09-19T21:41:19;1.3;1.3;1
74436;PMS7003;62868;52.360;30.424;2023-09-19T21:46:33;1.7;1;1
74436;PMS7003;62868;52.360;30.424;2023-09-19T21:51:15;1.3;1;0.7
74436;PMS7003;62868;52.360;30.424;2023-09-19T21:55:45;1.3;1.3;1.3
74436;PMS7003;62868;52.360;30.424;2023-09-19T22:01:27;1.7;1.7;1
74436;PMS7003;62868;52.360;30.424;2023-09-19T22:06:01;2;0.7;0.7
74436;PMS7003;62868;52.360;30.424;2023-09-19T22:11:33;1;1;1
74436;PMS7003;62868;52.360;30.424;2023-09-19T22:16:13;1.8;1.5;1
74436;PMS7003;62868;52.360;30.424;2023-09-19T22:21:19;2;1.7;1.3
74436;PMS7003;62868;52.360;30.424;2023-09-19T22:25:59;1.3;1.3;1
74436;PMS7003;62868;52.360;30.424;2023-09-19T22:31:01;1.3;1.3;1.3
74436;PMS7003;62868;52.360;30.424;2023-09-19T22:36:33;2;1.8;1.3
74436;PMS7003;62868;52.360;30.424;2023-09-19T22:41:03;1.7;1.7;1.3
74436;PMS7003;62868;52.360;30.424;2023-09-19T22:45:45;1.7;1.7;1.3
74436;PMS7003;62868;52.360;30.424;2023-09-19T22:50:45;1.7;1;1
74436;PMS7003;62868;52.360;30.424;2023-09-19T22:55:59;1.8;1.5;1
74436;PMS7003;62868;52.360;30.424;2023-09-19T23:01:14;2;1.7;1
74436;PMS7003;62868;52.360;30.424;2023-09-19T23:06:34;1.7;1.3;1.3
74436;PMS7003;62868;52.360;30.424;2023-09-19T23:11:05;2.3;2;1.5
74436;PMS7003;62868;52.360;30.424;2023-09-19T23:16:01;2.3;2;1.7
74436;PMS7003;62868;52.360;30.424;2023-09-19T23:21:23;2;1.3;1
74436;PMS7003;62868;52.360;30.424;2023-09-19T23:26:33;1.3;1.3;1
74436;PMS7003;62868;52.360;30.424;2023-09-19T23:31:23;2.5;2;1.3
74436;PMS7003;62868;52.360;30.424;2023-09-19T23:35:45;1;0.3;0
74436;PMS7003;62868;52.360;30.424;2023-09-19T23:40:47;1.7;1;1
74436;PMS7003;62868;52.360;30.424;2023-09-19T23:46:21;2.3;1.7;0.7
74436;PMS7003;62868;52.360;30.424;2023-09-19T23:51:33;1.8;1.3;1.3
74436;PMS7003;62868;52.360;30.424;2023-09-19T23:56:21;1.3;1;1
